createdAt,value
2023-03-02T00:00:46.801Z,120.21
2023-03-02T00:01:46.797Z,121.37
2023-03-02T00:02:46.801Z,120.97
2023-03-02T00:03:46.756Z,120.59
2023-03-02T00:04:46.703Z,119.73
2023-03-02T00:05:46.685Z,119.75
2023-03-02T00:06:46.647Z,121.11
2023-03-02T00:07:46.631Z,119.52
2023-03-02T00:08:47.397Z,118.78
2023-03-02T00:09:46.573Z,119.41
2023-03-02T00:10:46.555Z,121.54
2023-03-02T00:11:46.526Z,118.30
2023-03-02T00:12:46.499Z,118.85
2023-03-02T00:13:46.472Z,118.81
2023-03-02T00:14:46.459Z,118.01
2023-03-02T00:15:46.476Z,119.61
2023-03-02T00:16:46.415Z,119.64
2023-03-02T00:17:46.382Z,119.76
2023-03-02T00:18:46.361Z,120.20
2023-03-02T00:19:46.360Z,118.24
2023-03-02T00:20:46.320Z,117.34
2023-03-02T00:21:46.302Z,118.58
2023-03-02T00:22:46.264Z,118.72
2023-03-02T00:23:46.278Z,120.60
2023-03-02T00:24:46.218Z,117.97
2023-03-02T00:25:46.182Z,116.67
2023-03-02T00:26:46.158Z,117.63
2023-03-02T00:27:46.141Z,118.70
2023-03-02T00:28:46.106Z,119.68
2023-03-02T00:29:46.080Z,118.95
2023-03-02T00:30:46.045Z,117.34
2023-03-02T00:31:46.057Z,117.82
2023-03-02T00:32:46.009Z,118.04
2023-03-02T00:33:45.974Z,118.17
2023-03-02T00:34:45.952Z,118.47
2023-03-02T00:35:45.986Z,118.20
2023-03-02T00:36:45.913Z,118.63
2023-03-02T00:37:45.882Z,118.89
2023-03-02T00:38:45.864Z,119.11
2023-03-02T00:39:45.851Z,118.54
2023-03-02T00:40:45.825Z,119.32
2023-03-02T00:41:45.789Z,119.44
2023-03-02T00:42:45.774Z,119.95
2023-03-02T00:43:45.753Z,118.38
2023-03-02T00:44:45.735Z,118.13
2023-03-02T00:45:45.733Z,118.61
2023-03-02T00:46:45.773Z,117.10
2023-03-02T00:47:45.678Z,117.25
2023-03-02T00:48:45.658Z,118.62
2023-03-02T00:49:45.644Z,116.30
2023-03-02T00:50:45.603Z,117.86
2023-03-02T00:51:45.593Z,117.56
2023-03-02T00:52:45.565Z,116.64
2023-03-02T00:53:45.546Z,116.48
2023-03-02T00:54:45.540Z,117.61
2023-03-02T00:55:45.499Z,116.59
2023-03-02T00:56:45.472Z,114.20
2023-03-02T00:57:45.467Z,115.22
2023-03-02T00:58:45.434Z,118.42
2023-03-02T00:59:45.412Z,115.93
2023-03-02T01:00:45.392Z,114.97
2023-03-02T01:01:45.403Z,116.35
2023-03-02T01:02:45.447Z,115.93
2023-03-02T01:03:45.342Z,118.00
2023-03-02T01:04:45.309Z,114.93
2023-03-02T01:05:45.286Z,115.63
2023-03-02T01:06:45.256Z,115.41
2023-03-02T01:07:45.228Z,116.81
2023-03-02T01:08:45.215Z,116.95
2023-03-02T01:09:45.189Z,117.05
2023-03-02T01:10:45.219Z,117.09
2023-03-02T01:11:45.144Z,116.24
2023-03-02T01:12:45.120Z,116.90
2023-03-02T01:13:45.094Z,115.34
2023-03-02T01:14:45.071Z,115.58
2023-03-02T01:15:45.094Z,115.64
2023-03-02T01:16:45.027Z,115.38
2023-03-02T01:17:44.996Z,113.82
2023-03-02T01:18:44.971Z,116.89
2023-03-02T01:19:44.950Z,115.99
2023-03-02T01:20:44.911Z,115.24
2023-03-02T01:21:44.901Z,114.79
2023-03-02T01:22:44.872Z,115.28
2023-03-02T01:23:44.839Z,116.23
2023-03-02T01:24:44.818Z,114.11
2023-03-02T01:25:44.798Z,115.59
2023-03-02T01:26:44.772Z,117.09
2023-03-02T01:27:44.807Z,114.14
2023-03-02T01:28:44.713Z,113.23
2023-03-02T01:29:44.695Z,114.65
2023-03-02T01:30:44.678Z,114.36
2023-03-02T01:31:44.659Z,115.11
2023-03-02T01:32:44.611Z,113.42
2023-03-02T01:33:44.580Z,115.43
2023-03-02T01:34:44.554Z,114.50
2023-03-02T01:35:44.544Z,114.60
2023-03-02T01:36:44.492Z,115.00
2023-03-02T01:37:44.470Z,111.85
2023-03-02T01:38:44.503Z,113.49
2023-03-02T01:39:44.397Z,113.10
2023-03-02T01:40:44.369Z,113.17
2023-03-02T01:41:44.353Z,114.64
2023-03-02T01:42:44.317Z,112.93
2023-03-02T01:43:44.306Z,112.44
2023-03-02T01:44:44.283Z,113.35
2023-03-02T01:45:44.355Z,113.14
2023-03-02T01:46:44.228Z,113.13
2023-03-02T01:47:44.202Z,112.88
2023-03-02T01:48:44.176Z,112.37
2023-03-02T01:49:44.160Z,112.07
2023-03-02T01:50:44.116Z,112.84
2023-03-02T01:51:44.101Z,113.62
2023-03-02T01:52:44.066Z,113.73
2023-03-02T01:53:44.038Z,113.75
2023-03-02T01:54:44.013Z,112.92
2023-03-02T01:55:43.990Z,112.61
2023-03-02T01:56:43.958Z,111.55
2023-03-02T01:57:44.056Z,113.44
2023-03-02T01:58:43.898Z,113.77
2023-03-02T01:59:43.875Z,113.54
2023-03-02T02:00:43.992Z,111.51
2023-03-02T02:01:43.827Z,114.58
2023-03-02T02:02:43.793Z,113.60
2023-03-02T02:03:43.797Z,112.63
2023-03-02T02:04:43.744Z,112.14
2023-03-02T02:05:43.730Z,112.32
2023-03-02T02:06:43.696Z,111.92
2023-03-02T02:07:43.665Z,111.40
2023-03-02T02:08:43.648Z,112.39
2023-03-02T02:09:43.619Z,112.38
2023-03-02T02:10:43.598Z,110.81
2023-03-02T02:11:43.581Z,110.68
2023-03-02T02:12:43.534Z,110.01
2023-03-02T02:13:43.522Z,111.24
2023-03-02T02:14:43.482Z,111.24
2023-03-02T02:15:43.455Z,111.33
2023-03-02T02:16:43.474Z,111.47
2023-03-02T02:17:43.408Z,111.06
2023-03-02T02:18:43.373Z,109.85
2023-03-02T02:19:43.339Z,110.06
2023-03-02T02:20:43.316Z,111.08
2023-03-02T02:21:43.291Z,108.92
2023-03-02T02:22:43.257Z,109.71
2023-03-02T02:23:43.228Z,108.91
2023-03-02T02:24:43.208Z,108.70
2023-03-02T02:25:43.181Z,107.24
2023-03-02T02:26:43.150Z,107.99
2023-03-02T02:27:43.130Z,107.76
2023-03-02T02:28:43.099Z,108.20
2023-03-02T02:29:43.068Z,106.93
2023-03-02T02:30:43.087Z,108.59
2023-03-02T02:31:43.107Z,107.75
2023-03-02T02:32:43.010Z,108.53
2023-03-02T02:33:42.968Z,108.21
2023-03-02T02:34:42.933Z,108.37
2023-03-02T02:35:42.973Z,108.83
2023-03-02T02:36:42.887Z,108.74
2023-03-02T02:37:42.865Z,109.05
2023-03-02T02:38:42.826Z,108.21
2023-03-02T02:39:42.802Z,108.01
2023-03-02T02:40:42.776Z,108.61
2023-03-02T02:41:42.741Z,109.41
2023-03-02T02:42:42.725Z,107.90
2023-03-02T02:43:42.700Z,108.38
2023-03-02T02:44:42.661Z,107.45
2023-03-02T02:45:42.664Z,107.69
2023-03-02T02:46:42.613Z,109.19
2023-03-02T02:47:42.596Z,109.32
2023-03-02T02:48:42.570Z,109.32
2023-03-02T02:49:42.544Z,109.55
2023-03-02T02:50:42.514Z,109.51
2023-03-02T02:51:42.484Z,109.54
2023-03-02T02:52:42.479Z,109.44
2023-03-02T02:53:42.438Z,108.50
2023-03-02T02:54:42.405Z,110.15
2023-03-02T02:55:42.371Z,107.20
2023-03-02T02:56:42.345Z,108.59
2023-03-02T02:57:42.323Z,108.16
2023-03-02T02:58:42.294Z,108.44
2023-03-02T02:59:42.432Z,107.51
2023-03-02T03:00:42.241Z,108.23
2023-03-02T03:01:42.247Z,108.65
2023-03-02T03:02:42.175Z,106.72
2023-03-02T03:03:42.152Z,110.08
2023-03-02T03:04:42.220Z,107.52
2023-03-02T03:05:42.098Z,106.70
2023-03-02T03:06:42.313Z,106.90
2023-03-02T03:07:42.047Z,107.11
2023-03-02T03:08:42.017Z,107.53
2023-03-02T03:09:42.096Z,108.08
2023-03-02T03:10:41.981Z,108.71
2023-03-02T03:11:41.934Z,108.14
2023-03-02T03:12:41.906Z,108.68
2023-03-02T03:13:41.887Z,109.19
2023-03-02T03:14:41.874Z,107.08
2023-03-02T03:15:41.822Z,109.41
2023-03-02T03:16:41.868Z,107.46
2023-03-02T03:17:41.785Z,108.49
2023-03-02T03:18:41.756Z,108.02
2023-03-02T03:19:41.798Z,106.56
2023-03-02T03:20:41.687Z,106.28
2023-03-02T03:21:41.677Z,107.46
2023-03-02T03:22:41.654Z,106.52
2023-03-02T03:23:41.628Z,106.75
2023-03-02T03:24:41.593Z,106.15
2023-03-02T03:25:41.932Z,107.52
2023-03-02T03:26:41.545Z,108.06
2023-03-02T03:27:41.528Z,105.76
2023-03-02T03:28:41.494Z,106.23
2023-03-02T03:29:41.466Z,107.74
2023-03-02T03:30:41.467Z,104.82
2023-03-02T03:31:41.414Z,105.34
2023-03-02T03:32:41.394Z,106.46
2023-03-02T03:33:41.363Z,105.29
2023-03-02T03:34:41.359Z,105.97
2023-03-02T03:35:41.382Z,106.09
2023-03-02T03:36:41.286Z,105.84
2023-03-02T03:37:41.271Z,105.62
2023-03-02T03:38:41.260Z,104.70
2023-03-02T03:39:41.205Z,105.54
2023-03-02T03:40:41.179Z,105.44
2023-03-02T03:41:41.178Z,105.69
2023-03-02T03:42:41.147Z,105.35
2023-03-02T03:43:41.114Z,106.03
2023-03-02T03:44:41.081Z,105.50
2023-03-02T03:45:41.066Z,104.46
2023-03-02T03:46:41.035Z,98.36
2023-03-02T03:47:41.008Z,95.62
2023-03-02T03:48:40.978Z,97.12
2023-03-02T03:49:40.977Z,94.70
2023-03-02T03:50:40.939Z,98.32
2023-03-02T03:51:40.916Z,92.99
2023-03-02T03:52:40.900Z,88.08
2023-03-02T03:53:40.869Z,85.42
2023-03-02T03:54:40.855Z,84.10
2023-03-02T03:55:40.901Z,88.29
2023-03-02T03:56:40.805Z,88.34
2023-03-02T03:57:40.784Z,84.29
2023-03-02T03:58:40.772Z,81.16
2023-03-02T03:59:40.741Z,82.23
2023-03-02T04:00:40.709Z,83.20
2023-03-02T04:01:40.787Z,87.22
2023-03-02T04:02:40.727Z,81.56
2023-03-02T04:03:40.635Z,77.11
2023-03-02T04:04:40.612Z,76.97
2023-03-02T04:05:40.607Z,75.50
2023-03-02T04:06:40.569Z,77.98
2023-03-02T04:07:40.544Z,80.98
2023-03-02T04:08:40.517Z,74.34
2023-03-02T04:09:40.493Z,71.20
2023-03-02T04:10:40.465Z,72.62
2023-03-02T04:11:40.441Z,77.95
2023-03-02T04:12:40.418Z,78.21
2023-03-02T04:13:40.392Z,72.46
2023-03-02T04:14:40.371Z,70.60
2023-03-02T04:15:40.372Z,67.71
2023-03-02T04:16:40.331Z,73.19
2023-03-02T04:17:40.290Z,72.94
2023-03-02T04:18:40.260Z,70.07
2023-03-02T04:19:40.243Z,61.75
2023-03-02T04:20:40.215Z,64.40
2023-03-02T04:21:40.200Z,61.39
2023-03-02T04:22:40.168Z,65.93
2023-03-02T04:23:40.148Z,70.99
2023-03-02T04:24:40.130Z,63.52
2023-03-02T04:25:40.101Z,60.48
2023-03-02T04:26:40.080Z,60.46
2023-03-02T04:27:40.067Z,66.36
2023-03-02T04:28:40.041Z,69.84
2023-03-02T04:29:40.041Z,59.65
2023-03-02T04:30:40.033Z,58.62
2023-03-02T04:31:39.984Z,59.82
2023-03-02T04:32:39.958Z,60.92
2023-03-02T04:33:39.934Z,62.54
2023-03-02T04:34:39.923Z,60.61
2023-03-02T04:35:39.960Z,51.93
2023-03-02T04:36:39.860Z,52.17
2023-03-02T04:37:39.840Z,55.44
2023-03-02T04:38:39.831Z,58.59
2023-03-02T04:39:39.926Z,59.68
2023-03-02T04:40:39.771Z,63.78
2023-03-02T04:41:39.733Z,62.70
2023-03-02T04:42:39.700Z,63.87
2023-03-02T04:43:39.683Z,68.22
2023-03-02T04:44:39.646Z,64.69
2023-03-02T04:45:39.640Z,70.30
2023-03-02T04:46:39.683Z,71.36
2023-03-02T04:47:39.572Z,71.50
2023-03-02T04:48:39.539Z,73.53
2023-03-02T04:49:39.514Z,72.22
2023-03-02T04:50:39.488Z,72.56
2023-03-02T04:51:39.463Z,72.73
2023-03-02T04:52:39.438Z,73.42
2023-03-02T04:53:39.410Z,74.29
2023-03-02T04:54:39.383Z,75.54
2023-03-02T04:55:39.390Z,78.90
2023-03-02T04:56:39.350Z,77.71
2023-03-02T04:57:39.337Z,79.27
2023-03-02T04:58:39.290Z,81.72
2023-03-02T04:59:39.268Z,81.50
2023-03-02T05:00:39.266Z,80.92
2023-03-02T05:01:39.227Z,80.88
2023-03-02T05:02:39.252Z,83.56
2023-03-02T05:03:39.175Z,81.33
2023-03-02T05:04:39.179Z,82.21
2023-03-02T05:05:39.124Z,80.70
2023-03-02T05:06:39.093Z,83.42
2023-03-02T05:07:39.062Z,83.38
2023-03-02T05:08:39.038Z,83.34
2023-03-02T05:09:39.016Z,84.82
2023-03-02T05:10:38.988Z,82.97
2023-03-02T05:11:38.963Z,84.85
2023-03-02T05:12:38.927Z,83.68
2023-03-02T05:13:38.900Z,85.26
2023-03-02T05:14:38.870Z,86.04
2023-03-02T05:15:38.846Z,85.53
2023-03-02T05:16:38.894Z,85.89
2023-03-02T05:17:38.798Z,85.61
2023-03-02T05:18:38.770Z,87.27
2023-03-02T05:19:38.737Z,86.62
2023-03-02T05:20:38.718Z,86.73
2023-03-02T05:21:38.687Z,89.18
2023-03-02T05:22:38.676Z,88.44
2023-03-02T05:23:38.644Z,87.74
2023-03-02T05:24:38.619Z,87.52
2023-03-02T05:25:38.590Z,89.93
2023-03-02T05:26:38.576Z,88.54
2023-03-02T05:27:38.588Z,90.29
2023-03-02T05:28:38.508Z,89.39
2023-03-02T05:29:38.480Z,89.79
2023-03-02T05:30:38.468Z,88.63
2023-03-02T05:31:38.476Z,89.22
2023-03-02T05:32:38.447Z,89.81
2023-03-02T05:33:38.381Z,88.76
2023-03-02T05:34:38.346Z,89.62
2023-03-02T05:35:38.336Z,89.63
2023-03-02T05:36:38.296Z,88.81
2023-03-02T05:37:38.264Z,89.95
2023-03-02T05:38:38.253Z,90.60
2023-03-02T05:39:38.217Z,89.77
2023-03-02T05:40:38.189Z,90.96
2023-03-02T05:41:38.174Z,91.11
2023-03-02T05:42:38.139Z,91.36
2023-03-02T05:43:38.127Z,91.70
2023-03-02T05:44:38.090Z,92.26
2023-03-02T05:45:38.063Z,92.92
2023-03-02T05:46:38.076Z,92.12
2023-03-02T05:47:38.004Z,91.31
2023-03-02T05:48:37.977Z,91.71
2023-03-02T05:49:37.940Z,92.86
2023-03-02T05:50:37.907Z,92.20
2023-03-02T05:51:37.886Z,92.61
2023-03-02T05:52:37.851Z,92.12
2023-03-02T05:53:37.828Z,91.51
2023-03-02T05:54:37.824Z,92.26
2023-03-02T05:55:37.771Z,92.46
2023-03-02T05:56:37.761Z,93.19
2023-03-02T05:57:37.707Z,93.29
2023-03-02T05:58:37.679Z,92.73
2023-03-02T05:59:37.666Z,92.05
2023-03-02T06:00:37.622Z,92.48
2023-03-02T06:01:37.623Z,91.02
2023-03-02T06:02:37.609Z,91.85
2023-03-02T06:03:37.536Z,93.37
2023-03-02T06:04:37.518Z,90.37
2023-03-02T06:05:37.482Z,91.10
2023-03-02T06:06:37.915Z,92.64
2023-03-02T06:07:37.431Z,91.23
2023-03-02T06:08:37.407Z,90.96
2023-03-02T06:09:37.380Z,92.04
2023-03-02T06:10:37.379Z,91.74
2023-03-02T06:11:37.319Z,92.82
2023-03-02T06:12:37.299Z,90.75
2023-03-02T06:13:37.274Z,91.73
2023-03-02T06:14:37.252Z,91.55
2023-03-02T06:15:37.209Z,90.82
2023-03-02T06:16:37.292Z,92.68
2023-03-02T06:17:37.160Z,92.36
2023-03-02T06:18:38.754Z,92.59
2023-03-02T06:19:37.259Z,92.23
2023-03-02T06:20:37.230Z,94.15
2023-03-02T06:21:37.201Z,92.31
2023-03-02T06:22:37.175Z,90.73
2023-03-02T06:23:37.162Z,90.88
2023-03-02T06:24:37.121Z,90.93
2023-03-02T06:25:37.097Z,91.14
2023-03-02T06:26:37.078Z,92.18
2023-03-02T06:27:37.039Z,90.18
2023-03-02T06:28:49.721Z,90.00
2023-03-02T06:29:37.994Z,90.18
2023-03-02T06:30:36.998Z,90.40
2023-03-02T06:31:36.956Z,91.14
2023-03-02T06:32:36.960Z,92.48
2023-03-02T06:33:36.892Z,93.02
2023-03-02T06:34:36.910Z,96.76
2023-03-02T06:35:36.947Z,97.22
2023-03-02T06:36:36.980Z,97.08
2023-03-02T06:37:36.775Z,102.45
2023-03-02T06:38:36.766Z,106.02
2023-03-02T06:39:36.719Z,111.82
2023-03-02T06:40:36.687Z,114.11
2023-03-02T06:41:36.756Z,116.27
2023-03-02T06:42:36.635Z,122.44
2023-03-02T06:43:36.602Z,122.35
2023-03-02T06:44:36.580Z,125.82
2023-03-02T06:45:36.573Z,132.75
2023-03-02T06:46:36.532Z,136.57
2023-03-02T06:47:36.523Z,139.42
2023-03-02T06:48:36.487Z,147.30
2023-03-02T06:49:36.460Z,150.56
2023-03-02T06:50:36.453Z,157.62
2023-03-02T06:51:36.392Z,159.02
2023-03-02T06:52:36.358Z,163.34
2023-03-02T06:53:36.334Z,167.90
2023-03-02T06:54:36.308Z,171.39
2023-03-02T06:55:36.310Z,177.39
2023-03-02T06:56:36.263Z,179.45
2023-03-02T06:57:36.233Z,184.00
2023-03-02T06:58:36.200Z,187.45
2023-03-02T06:59:36.163Z,191.69
2023-03-02T07:00:36.140Z,198.25
2023-03-02T07:01:36.548Z,199.38
2023-03-02T07:02:36.075Z,204.98
2023-03-02T07:03:36.213Z,206.37
2023-03-02T07:04:36.041Z,210.68
2023-03-02T07:05:35.994Z,214.82
2023-03-02T07:06:35.995Z,218.09
2023-03-02T07:07:35.943Z,221.26
2023-03-02T07:08:35.905Z,224.54
2023-03-02T07:09:35.869Z,228.98
2023-03-02T07:10:35.840Z,231.91
2023-03-02T07:11:35.809Z,235.88
2023-03-02T07:12:35.751Z,240.27
2023-03-02T07:13:35.781Z,243.07
2023-03-02T07:14:35.694Z,245.16
2023-03-02T07:15:35.665Z,245.04
2023-03-02T07:16:35.660Z,248.88
2023-03-02T07:17:35.608Z,245.50
2023-03-02T07:18:35.576Z,249.62
2023-03-02T07:19:35.546Z,247.68
2023-03-02T07:20:35.532Z,247.95
2023-03-02T07:21:35.622Z,249.23
2023-03-02T07:22:35.463Z,248.26
2023-03-02T07:23:35.413Z,249.73
2023-03-02T07:24:35.388Z,253.72
2023-03-02T07:25:35.346Z,258.92
2023-03-02T07:26:35.313Z,267.99
2023-03-02T07:27:35.284Z,252.17
2023-03-02T07:28:35.252Z,249.84
2023-03-02T07:29:35.227Z,250.06
2023-03-02T07:30:35.229Z,250.58
2023-03-02T07:31:35.392Z,252.14
2023-03-02T07:32:35.196Z,254.47
2023-03-02T07:33:35.085Z,258.25
2023-03-02T07:34:35.047Z,248.73
2023-03-02T07:35:35.038Z,248.38
2023-03-02T07:36:34.959Z,249.30
2023-03-02T07:37:34.918Z,247.67
2023-03-02T07:38:34.896Z,249.25
2023-03-02T07:39:34.864Z,249.40
2023-03-02T07:40:34.814Z,249.98
2023-03-02T07:41:35.064Z,250.49
2023-03-02T07:42:34.739Z,253.55
2023-03-02T07:43:34.696Z,258.53
2023-03-02T07:44:34.678Z,250.00
2023-03-02T07:45:34.654Z,249.65
2023-03-02T07:46:34.651Z,248.90
